Dugger, IN

9:15 AM EST on February 28, 2015 (GMT -0500)
2 miles SW of Sullivan_IN | Change Station
CLOSE
Current Station
Personal Weather Station
Location: Sullivan, IN
Elevation: 499 ft
Nearby Weather Stations
Active Advisory: Winter Weather Advisory

Elev 499 ft 39.08 °N, 87.43 °W | Updated 13 minutes ago

Overcast
Overcast
17.6 °F
Feels Like 9 °F
N
6.3
Wind Variable Wind from East

Today
High -- | Low -- °F
--% Chance of Precip.
Yesterday
High -- | Low -- °F
Precip. -- in
7:23 AM 6:40 PM
Waxing Gibbous, 77% visible
Pressure 30.72 in
Visibility 10.0 miles
Clouds Overcast 6000 ft
Windchill 9 °F
Dew Point 5 °F
Humidity 57%
Rainfall 0.00 in
Snow Depth Not available.
UV 0 out of 12
Pollen .60 out of 12
Air Quality Not available.
Flu Activity Not available.
METAR KRSV 281355Z AUTO 09005KT 10SM OVC060 M09/M14 A3072 RMK AO2 T10861145

More Conditions Fewer Conditions

Pressure 30.72 in
Visibility 10.0 miles
Clouds Overcast 6000 ft
Windchill 9 °F
Dew Point 5 °F
Humidity 57%
Rainfall 0.00 in
Snow Depth Not available.
UV 0 out of 12
Pollen .60 out of 12
Air Quality Not available.
Flu Activity Not available.
METAR KRSV 281355Z AUTO 09005KT 10SM OVC060 M09/M14 A3072 RMK AO2 T10861145

More Conditions Fewer Conditions

10-Day Weather Forecast

Almanac

Astronomy

Feb. 28, 2015 Rise Set
Actual Time
Civil Twilight
Nautical Twilight
Astronomical Twilight
Moon
Length of Visible Light
Length of Day
Tomorrow will be .
, % of the Moon is Illuminated

Today's Extremes

State Highs State Lows

Community

WunderPhotos

Upload Photos

1,801,021 photos uploaded!

WunderBlogs® & News

Nearby

Air Quality

  Air Quality AQ Index Pollutant
Not available.

Snow Depth

Station Depth Elevation

Earthquake Activity

City Distance Mag. Time & Date
Minimum magnitude displayed is 2.5.

Coastal Water Temperatures

Place Temperature

Nearby Weather Stations

Winter Weather Advisory
Statement as of 4:03 AM EST on February 28, 2015

... Winter Weather Advisory in effect from 7 PM this evening to
7 PM EST Sunday...

The National Weather Service in Indianapolis has issued a Winter
Weather Advisory for 2 to 4 inches of snow and minor accumulations
of ice... which is in effect from 7 PM this evening to 7 PM EST
Sunday.

* Timing... accumulating snow beginning around sunset. Snow may mix
with freezing rain after midnight tonight. A mix of
snow... freezing rain... and rain expected during the day on
Sunday.

* Main impact... hazardous travel conditions due to accumulating
snow and ice.

* Other impacts... reduced visibility in areas of heavier snow.

Precautionary/preparedness actions...

A Winter Weather Advisory means that periods of snow... sleet... or
freezing rain will cause travel difficulties. Be prepared for
slippery roads and limited visibilities... and use caution while
driving.



Jas